Time;durP1;ratioP1;P1;durP2;ratioP2;P2;SDS_P1;SDS_P2;PMS_P1;PMS_P2;Temp;Humidity;BMP_temperature;BMP_pressure;BME280_temperature;BME280_humidity;BME280_pressure;Samples;Min_cycle;Max_cycle;Signal;HPM_P1;HPM_P2
2022/11/04 00:01:30;;;;;;;2.83;1.60;;;;;;;19.51;51.52;100101.16;5030882;28;20030;-66
2022/11/04 00:03:55;;;;;;;4.03;1.58;;;;;;;19.53;51.58;100098.34;5020676;28;20066;-66
2022/11/04 00:06:21;;;;;;;4.15;1.60;;;;;;;19.52;51.51;100099.38;5026258;28;20403;-67
2022/11/04 00:08:56;;;;;;;2.75;1.50;;;;;;;19.52;51.14;100108.13;5028465;28;20033;-66
2022/11/04 00:14:13;;;;;;;3.50;1.60;;;;;;;19.48;51.31;100109.38;5019070;28;20385;-66
2022/11/04 00:19:22;;;;;;;3.60;1.58;;;;;;;19.39;51.38;100108.50;5040081;28;20055;-65
2022/11/04 00:29:55;;;;;;;3.72;1.50;;;;;;;19.39;51.35;100132.28;5037300;28;20048;-65
2022/11/04 00:35:04;;;;;;;3.30;1.20;;;;;;;19.37;51.18;100131.56;5026496;28;20036;-65
2022/11/04 00:37:30;;;;;;;3.88;1.50;;;;;;;19.33;51.28;100118.84;5047358;28;20029;-67
2022/11/04 00:39:55;;;;;;;2.85;1.38;;;;;;;19.35;51.28;100138.00;5042016;28;20028;-66
2022/11/04 00:42:20;;;;;;;3.20;1.47;;;;;;;19.32;51.36;100130.38;5032377;28;20029;-65
2022/11/04 00:44:45;;;;;;;3.27;1.50;;;;;;;19.34;51.11;100136.34;5043170;28;20287;-66
2022/11/04 00:47:11;;;;;;;3.17;1.40;;;;;;;19.32;51.24;100133.00;5030012;28;20262;-66
2022/11/04 00:49:36;;;;;;;3.08;1.50;;;;;;;19.28;51.18;100135.13;5032054;28;20666;-66
2022/11/04 00:52:01;;;;;;;2.70;1.40;;;;;;;19.28;51.23;100139.56;5027942;28;20029;-65
2022/11/04 00:54:27;;;;;;;4.20;1.33;;;;;;;19.28;51.09;100152.78;5034202;28;20288;-66
2022/11/04 00:56:52;;;;;;;3.17;1.50;;;;;;;19.24;51.08;100154.06;5025044;28;20129;-65
2022/11/04 00:59:18;;;;;;;3.25;1.50;;;;;;;19.23;51.05;100150.56;5024794;28;20262;-66
2022/11/04 01:01:43;;;;;;;2.65;1.30;;;;;;;19.25;50.96;100164.50;5043288;28;20109;-65
2022/11/04 01:04:09;;;;;;;3.15;1.30;;;;;;;19.25;50.74;100168.91;5043704;28;20525;-65
2022/11/04 01:06:34;;;;;;;2.92;1.40;;;;;;;19.20;51.03;100156.16;5035186;28;20052;-66
2022/11/04 01:09:02;;;;;;;4.38;1.60;;;;;;;19.20;50.76;100159.66;5023614;28;20052;-65
2022/11/04 01:11:28;;;;;;;3.42;1.50;;;;;;;19.16;50.72;100158.28;5023794;28;20076;-66
2022/11/04 01:13:54;;;;;;;3.03;1.55;;;;;;;19.19;50.89;100165.91;5023364;28;20473;-66
2022/11/04 01:16:20;;;;;;;3.65;1.60;;;;;;;19.20;50.86;100175.50;5027962;28;20055;-66
2022/11/04 01:18:45;;;;;;;3.13;1.40;;;;;;;19.14;50.77;100170.81;5035022;28;20075;-65
2022/11/04 01:21:13;;;;;;;3.30;1.70;;;;;;;19.17;50.85;100183.72;5034572;28;20041;-66
2022/11/04 01:23:40;;;;;;;3.08;1.50;;;;;;;19.17;50.98;100191.63;5023199;28;20270;-65
2022/11/04 01:26:09;;;;;;;3.67;1.70;;;;;;;19.11;50.79;100176.38;5026736;28;21186;-67
2022/11/04 01:28:34;;;;;;;4.75;1.85;;;;;;;19.14;50.86;100183.19;5042919;28;20386;-66
2022/11/04 01:31:06;;;;;;;4.88;1.70;;;;;;;19.14;50.69;100186.66;5036049;28;20029;-65
2022/11/04 01:33:31;;;;;;;3.55;1.50;;;;;;;19.09;50.80;100175.69;5043078;28;20029;-67
2022/11/04 01:35:59;;;;;;;4.22;1.52;;;;;;;19.10;50.90;100177.34;5042530;28;20044;-66
2022/11/04 01:38:24;;;;;;;2.63;1.50;;;;;;;19.12;50.70;100171.91;5028863;28;20033;-65
2022/11/04 01:40:49;;;;;;;3.83;1.60;;;;;;;19.07;50.93;100174.16;5023502;28;20378;-66
2022/11/04 01:43:17;;;;;;;3.83;1.60;;;;;;;19.09;50.82;100173.06;5042471;28;20344;-65
2022/11/04 01:45:57;;;;;;;3.35;1.50;;;;;;;19.10;50.69;100179.97;5042771;28;20816;-66
2022/11/04 01:48:32;;;;;;;4.45;1.58;;;;;;;19.06;50.58;100177.78;5037369;28;20033;-66
2022/11/04 01:50:59;;;;;;;4.00;1.60;;;;;;;19.07;50.68;100184.75;5041211;28;20044;-66
2022/11/04 01:53:28;;;;;;;3.22;1.52;;;;;;;19.04;50.84;100177.94;5036830;28;20037;-65
2022/11/04 01:55:56;;;;;;;3.05;1.42;;;;;;;19.05;50.58;100176.13;5030375;28;20042;-66
2022/11/04 01:58:25;;;;;;;3.03;1.52;;;;;;;19.05;50.66;100181.41;5036576;28;20065;-66
2022/11/04 02:00:50;;;;;;;3.42;1.58;;;;;;;19.02;50.66;100186.00;5040178;28;20107;-66
2022/11/04 02:03:28;;;;;;;3.17;1.65;;;;;;;19.02;50.49;100185.16;5025709;28;20124;-65
2022/11/04 02:05:54;;;;;;;3.67;1.75;;;;;;;19.03;50.69;100182.38;5022445;28;20355;-65
2022/11/04 02:08:20;;;;;;;2.63;1.45;;;;;;;19.00;50.65;100185.31;5022468;28;20033;-65
2022/11/04 02:10:51;;;;;;;4.25;1.65;;;;;;;19.01;50.44;100179.06;5023807;28;20043;-66
2022/11/04 02:13:16;;;;;;;2.92;1.38;;;;;;;18.98;50.52;100181.19;5036938;28;20087;-65
2022/11/04 02:15:59;;;;;;;3.05;1.30;;;;;;;19.00;50.31;100176.56;5022322;28;20052;-66
2022/11/04 02:18:36;;;;;;;3.67;1.40;;;;;;;18.99;50.58;100183.69;5022655;28;20547;-66
2022/11/04 02:21:20;;;;;;;3.67;1.55;;;;;;;18.99;50.46;100182.81;5022175;28;20041;-67
2022/11/04 02:24:07;;;;;;;3.35;1.50;;;;;;;18.98;50.53;100192.56;5026390;28;20405;-64
2022/11/04 02:27:00;;;;;;;4.75;1.55;;;;;;;18.96;50.30;100198.97;5028603;28;20084;-65
2022/11/04 02:29:29;;;;;;;3.08;1.20;;;;;;;18.96;50.40;100198.97;5041656;28;20389;-66
2022/11/04 02:32:10;;;;;;;2.85;1.30;;;;;;;18.94;50.14;100190.34;5027495;28;20075;-67
2022/11/04 02:34:51;;;;;;;3.22;1.45;;;;;;;18.95;50.19;100203.41;5034487;28;20476;-64
2022/11/04 02:37:32;;;;;;;2.65;1.35;;;;;;;18.95;50.21;100210.50;5027033;28;20421;-64
2022/11/04 02:40:26;;;;;;;2.72;1.08;;;;;;;18.89;50.20;100205.81;5041360;28;20036;-66
2022/11/04 02:42:57;;;;;;;3.60;1.45;;;;;;;18.89;50.12;100204.00;5041597;28;20032;-65
2022/11/04 02:45:41;;;;;;;3.83;1.30;;;;;;;18.92;50.15;100208.16;5041720;28;20045;-66
2022/11/04 02:48:18;;;;;;;2.50;1.25;;;;;;;18.90;50.16;100208.31;5041327;28;20020;-66
2022/11/04 02:50:53;;;;;;;3.38;1.30;;;;;;;18.90;50.21;100207.44;5037934;28;20060;-65
2022/11/04 02:53:39;;;;;;;2.60;1.20;;;;;;;18.74;49.98;100187.78;5041569;28;20025;-64
2022/11/04 02:56:06;;;;;;;2.38;1.08;;;;;;;18.84;49.92;100198.31;5040937;28;20029;-66
2022/11/04 02:58:37;;;;;;;3.88;1.27;;;;;;;18.83;49.93;100202.75;5041322;28;20958;-67
2022/11/04 03:01:05;;;;;;;3.08;1.30;;;;;;;18.84;50.03;100204.41;5038462;28;20140;-65
2022/11/04 03:03:36;;;;;;;2.78;1.10;;;;;;;18.83;50.06;100197.47;5041183;28;20048;-66
2022/11/04 03:06:03;;;;;;;2.22;1.15;;;;;;;18.81;49.89;100199.41;5021708;28;20377;-66
2022/11/04 03:08:40;;;;;;;4.18;1.20;;;;;;;18.85;49.98;100200.00;5021545;28;20029;-66
2022/11/04 03:11:22;;;;;;;7.00;1.33;;;;;;;18.83;49.96;100205.38;5021497;28;20095;-66
2022/11/04 03:14:12;;;;;;;3.13;1.20;;;;;;;18.81;49.80;100217.88;5036401;28;20461;-65
2022/11/04 03:16:41;;;;;;;2.17;1.02;;;;;;;18.82;49.77;100216.91;5021639;28;20086;-67
2022/11/04 03:19:43;;;;;;;2.63;1.10;;;;;;;18.81;49.87;100217.88;5031828;28;20044;-66
2022/11/04 03:22:15;;;;;;;3.10;1.27;;;;;;;18.80;49.68;100210.09;5029235;28;20384;-66
2022/11/04 03:24:44;;;;;;;3.42;1.30;;;;;;;18.76;49.74;100201.66;5041152;28;20060;-66
2022/11/04 03:27:53;;;;;;;2.60;1.20;;;;;;;18.79;49.76;100219.00;5041063;28;20052;-65
2022/11/04 03:30:21;;;;;;;3.17;1.00;;;;;;;18.77;49.71;100213.03;4999136;28;20084;-66
2022/11/04 03:32:58;;;;;;;3.13;1.10;;;;;;;18.78;49.57;100220.81;5035786;28;20017;-66
2022/11/04 03:35:25;;;;;;;3.83;1.10;;;;;;;18.74;49.76;100213.31;5040782;28;20018;-67
2022/11/04 03:37:50;;;;;;;2.53;1.08;;;;;;;18.64;49.50;100194.88;5040842;28;20562;-66
2022/11/04 03:40:18;;;;;;;4.75;1.48;;;;;;;18.74;49.55;100222.09;5049561;28;20030;-66
2022/11/04 03:42:51;;;;;;;2.50;1.10;;;;;;;18.72;49.53;100217.91;5026940;28;20477;-66
2022/11/04 03:45:17;;;;;;;2.78;1.10;;;;;;;18.72;49.35;100216.09;5032030;28;20056;-66
2022/11/04 03:47:42;;;;;;;2.60;0.90;;;;;;;18.74;49.40;100226.50;5024859;28;20151;-67
2022/11/04 03:50:10;;;;;;;2.58;1.00;;;;;;;18.73;49.51;100220.41;5036058;28;20047;-67
2022/11/04 03:52:36;;;;;;;3.15;1.02;;;;;;;18.73;49.53;100222.22;5034749;28;20546;-66
2022/11/04 03:55:03;;;;;;;3.45;1.00;;;;;;;18.68;49.41;100220.84;5040589;28;20036;-66
2022/11/04 03:57:48;;;;;;;3.10;1.00;;;;;;;18.71;49.40;100225.00;5040814;28;20040;-66
2022/11/04 04:00:19;;;;;;;2.88;1.10;;;;;;;18.69;49.54;100221.66;5033290;28;20068;-65
2022/11/04 04:02:47;;;;;;;3.90;1.10;;;;;;;18.70;49.53;100219.88;5025385;28;20035;-66
2022/11/04 04:05:29;;;;;;;3.58;1.10;;;;;;;18.64;49.42;100211.56;5033900;28;20481;-66
2022/11/04 04:08:13;;;;;;;2.80;1.10;;;;;;;18.69;49.35;100221.66;5020857;28;20429;-67
2022/11/04 04:11:03;;;;;;;2.33;1.00;;;;;;;18.64;49.23;100211.56;5024839;28;20167;-66
2022/11/04 04:13:39;;;;;;;1.73;0.90;;;;;;;18.62;49.24;100210.03;5033420;28;20037;-66
2022/11/04 04:16:10;;;;;;;2.95;1.00;;;;;;;18.63;49.19;100219.63;5044438;28;20040;-64
2022/11/04 04:18:43;;;;;;;2.78;0.90;;;;;;;18.65;49.28;100226.41;5037458;28;20025;-66
2022/11/04 04:21:13;;;;;;;2.58;0.98;;;;;;;18.60;49.09;100219.91;5039114;28;20515;-66
2022/11/04 04:29:13;;;;;;;3.83;1.17;;;;;;;18.62;49.16;100239.06;5037368;28;20052;-66
2022/11/04 04:31:49;;;;;;;4.32;1.10;;;;;;;18.59;49.22;100239.34;5033386;28;20037;-65
2022/11/04 04:34:18;;;;;;;3.92;1.27;;;;;;;18.59;49.08;100240.16;5030474;28;20045;-65
2022/11/04 04:36:55;;;;;;;2.35;1.13;;;;;;;18.58;49.05;100240.31;5036510;28;20033;-68
2022/11/04 04:45:03;;;;;;;2.22;0.80;;;;;;;18.56;48.86;100251.00;5032235;28;20047;-66
2022/11/04 04:47:44;;;;;;;3.28;1.05;;;;;;;18.56;48.68;100243.09;5035481;28;20033;-66
2022/11/04 04:50:12;;;;;;;3.42;1.10;;;;;;;18.55;48.83;100243.22;5035419;28;20576;-66
2022/11/04 04:52:41;;;;;;;3.95;1.20;;;;;;;18.54;48.89;100245.03;5035934;28;20465;-64
2022/11/04 04:55:07;;;;;;;2.35;0.90;;;;;;;18.57;48.88;100249.22;5040578;28;20481;-65
2022/11/04 04:57:32;;;;;;;3.17;1.25;;;;;;;18.55;48.73;100259.91;5029188;28;20025;-66
2022/11/04 04:59:57;;;;;;;2.80;1.00;;;;;;;18.54;48.83;100260.88;5032731;28;20036;-65
2022/11/04 05:02:23;;;;;;;5.15;1.17;;;;;;;18.51;48.80;100260.34;5038677;28;20029;-65
2022/11/04 05:04:48;;;;;;;1.60;0.82;;;;;;;18.55;48.71;100269.63;5039591;28;20029;-65
2022/11/04 05:07:13;;;;;;;2.15;0.88;;;;;;;18.50;48.68;100264.78;5033620;28;20026;-66
2022/11/04 05:09:39;;;;;;;2.83;1.10;;;;;;;18.54;48.75;100267.97;5043382;28;20021;-66
2022/11/04 05:12:04;;;;;;;1.75;0.90;;;;;;;18.51;48.76;100265.59;5036928;28;20029;-66
2022/11/04 05:14:30;;;;;;;2.70;1.02;;;;;;;18.55;48.75;100277.53;5036166;28;20469;-66
2022/11/04 05:16:55;;;;;;;3.22;1.15;;;;;;;18.51;48.75;100271.72;5027815;28;20025;-65
2022/11/04 05:19:20;;;;;;;2.38;1.00;;;;;;;18.53;48.57;100274.22;5036166;28;20480;-66
2022/11/04 05:21:45;;;;;;;2.45;0.93;;;;;;;18.52;48.81;100275.16;5038818;28;20033;-67
2022/11/04 05:24:11;;;;;;;3.53;1.10;;;;;;;18.51;48.58;100273.53;5028578;28;20469;-66
2022/11/04 05:26:36;;;;;;;2.30;0.90;;;;;;;18.55;48.47;100288.94;5027962;28;20053;-66
2022/11/04 05:29:01;;;;;;;2.47;1.10;;;;;;;18.57;48.55;100286.16;5030797;28;20030;-65
2022/11/04 05:31:28;;;;;;;3.40;1.48;;;;;;;18.55;48.56;100296.84;5027939;28;20262;-66
2022/11/04 05:33:53;;;;;;;1.98;0.93;;;;;;;18.54;48.38;100289.91;5030885;28;20124;-68
2022/11/04 05:36:18;;;;;;;2.83;1.00;;;;;;;18.49;48.51;100290.31;5032585;28;20125;-65
2022/11/04 05:38:49;;;;;;;3.43;1.20;;;;;;;18.55;48.48;100299.50;5032839;28;20262;-66
2022/11/04 05:41:24;;;;;;;2.92;1.15;;;;;;;18.55;48.38;100302.13;5034042;28;20258;-65
2022/11/04 05:43:51;;;;;;;3.75;1.20;;;;;;;18.51;48.40;100290.19;5029264;28;20059;-65
2022/11/04 05:46:17;;;;;;;2.47;1.00;;;;;;;18.54;48.13;100300.47;5033513;28;20033;-66
2022/11/04 05:48:42;;;;;;;3.42;1.25;;;;;;;18.53;48.30;100295.31;5034115;28;20021;-67
2022/11/04 05:51:12;;;;;;;4.07;1.17;;;;;;;18.52;48.25;100305.06;5033176;28;20448;-66
2022/11/04 05:53:38;;;;;;;2.42;0.93;;;;;;;18.53;48.33;100308.50;5028573;28;20273;-66
2022/11/04 05:56:03;;;;;;;3.58;1.15;;;;;;;18.52;48.27;100302.41;5034346;28;20032;-64
2022/11/04 05:58:28;;;;;;;2.42;1.00;;;;;;;18.52;48.48;100309.47;5034820;28;20025;-66
2022/11/04 06:00:54;;;;;;;4.23;1.10;;;;;;;18.52;48.33;100320.03;5033634;28;20029;-64
2022/11/04 06:03:19;;;;;;;3.23;1.10;;;;;;;18.49;48.42;100316.72;5026551;28;20357;-65
2022/11/04 06:05:44;;;;;;;2.07;0.90;;;;;;;18.48;48.39;100317.69;5031801;28;20262;-64
2022/11/04 06:08:09;;;;;;;4.37;1.20;;;;;;;18.48;48.00;100319.47;5026193;28;20626;-66
2022/11/04 06:10:35;;;;;;;2.57;1.30;;;;;;;18.44;48.39;100313.66;5038535;28;20273;-66
2022/11/04 06:13:00;;;;;;;2.60;0.90;;;;;;;18.44;48.39;100320.75;5022796;28;20290;-66
2022/11/04 06:15:25;;;;;;;4.55;1.05;;;;;;;18.47;48.28;100325.75;5039313;28;20029;-65
2022/11/04 06:17:50;;;;;;;3.67;1.38;;;;;;;18.34;48.26;100309.34;5041748;28;20028;-66
2022/11/04 06:20:16;;;;;;;3.50;1.38;;;;;;;18.45;48.17;100332.94;5041624;28;20064;-65
2022/11/04 06:22:41;;;;;;;3.05;1.25;;;;;;;18.45;48.26;100325.91;5037898;28;20604;-66
2022/11/04 06:25:07;;;;;;;3.57;1.37;;;;;;;18.46;48.10;100321.44;5036350;28;20042;-65
2022/11/04 06:27:32;;;;;;;2.70;1.20;;;;;;;18.47;48.50;100331.84;5031069;28;20409;-66
2022/11/04 06:29:57;;;;;;;3.47;1.37;;;;;;;18.54;48.36;100331.31;5028146;28;20116;-66
2022/11/04 06:32:23;;;;;;;2.50;1.20;;;;;;;18.54;48.61;100331.31;5040686;28;20278;-65
2022/11/04 06:34:48;;;;;;;3.88;1.17;;;;;;;18.57;48.74;100331.84;5038226;28;20033;-65
2022/11/04 06:37:13;;;;;;;3.88;1.23;;;;;;;18.60;48.80;100336.84;5028364;28;20061;-66
2022/11/04 06:39:39;;;;;;;2.65;1.02;;;;;;;18.67;48.76;100353.81;5026407;28;20063;-66
2022/11/04 06:42:04;;;;;;;2.40;1.08;;;;;;;18.71;48.69;100358.78;5021268;28;20034;-66
2022/11/04 06:44:30;;;;;;;4.22;1.10;;;;;;;18.74;48.78;100351.44;5021968;28;20037;-65
2022/11/04 06:46:56;;;;;;;3.83;1.00;;;;;;;18.77;48.82;100352.94;5026678;28;20044;-66
2022/11/04 06:49:24;;;;;;;4.38;1.30;;;;;;;18.79;48.68;100351.84;5037082;28;20636;-65
2022/11/04 06:51:50;;;;;;;3.63;1.30;;;;;;;18.79;48.88;100351.00;5021860;28;20072;-65
2022/11/04 06:54:16;;;;;;;3.83;1.25;;;;;;;18.82;48.29;100350.72;5021776;28;20033;-66
2022/11/04 06:56:42;;;;;;;3.60;1.10;;;;;;;18.81;48.00;100355.16;5035666;28;20080;-65
2022/11/04 06:59:08;;;;;;;4.00;1.23;;;;;;;18.87;48.25;100364.38;5026061;28;20113;-66
2022/11/04 07:01:35;;;;;;;3.42;1.30;;;;;;;18.88;48.23;100367.81;5021639;28;20026;-66
2022/11/04 07:04:04;;;;;;;2.42;0.93;;;;;;;18.93;48.16;100373.50;5021696;28;20112;-64
2022/11/04 07:06:29;;;;;;;6.10;1.08;;;;;;;18.93;48.21;100370.88;5022987;28;20029;-65
2022/11/04 07:08:59;;;;;;;2.85;1.00;;;;;;;19.01;48.22;100381.59;5021165;28;20372;-65
2022/11/04 07:11:26;;;;;;;2.88;1.13;;;;;;;19.01;48.28;100385.06;5031749;28;20101;-66
2022/11/04 07:13:51;;;;;;;4.78;1.23;;;;;;;19.05;48.24;100388.22;5031653;28;20072;-64
2022/11/04 07:16:17;;;;;;;2.95;1.20;;;;;;;19.03;48.27;100391.00;5041266;28;20067;-67
2022/11/04 07:18:43;;;;;;;3.15;1.20;;;;;;;19.09;48.21;100389.63;5040769;28;20025;-67
2022/11/04 07:21:10;;;;;;;4.53;1.50;;;;;;;19.06;48.02;100389.91;5041086;28;20037;-67
2022/11/04 07:23:35;;;;;;;2.45;1.02;;;;;;;19.06;48.47;100386.41;5031541;28;20040;-67
2022/11/04 07:26:02;;;;;;;5.45;1.80;;;;;;;19.10;48.55;100396.56;5032653;28;20639;-67
2022/11/04 07:28:27;;;;;;;5.35;1.20;;;;;;;19.13;48.57;100396.28;5023472;28;20037;-65
2022/11/04 07:30:57;;;;;;;3.58;1.38;;;;;;;19.15;48.79;100398.78;5023681;28;20042;-66
2022/11/04 07:33:24;;;;;;;3.80;1.35;;;;;;;19.17;48.69;100402.97;5021564;28;21333;-67
2022/11/04 07:35:49;;;;;;;4.63;1.85;;;;;;;19.15;48.75;100399.63;5021515;28;20095;-67
2022/11/04 07:38:15;;;;;;;4.15;1.40;;;;;;;19.14;48.83;100391.84;5021226;28;20025;-67
2022/11/04 07:40:40;;;;;;;5.47;1.30;;;;;;;19.15;48.79;100402.28;5021259;28;20691;-68
2022/11/04 07:43:05;;;;;;;3.87;1.20;;;;;;;19.21;48.86;100414.88;5024425;28;20055;-67
2022/11/04 07:45:31;;;;;;;3.53;1.13;;;;;;;19.18;48.86;100411.69;5025389;28;20262;-67
2022/11/04 07:47:56;;;;;;;3.13;1.10;;;;;;;19.18;48.88;100415.19;5033753;28;20106;-66
2022/11/04 07:50:22;;;;;;;2.63;1.00;;;;;;;19.23;48.92;100414.75;5037663;28;20086;-66
2022/11/04 07:52:49;;;;;;;3.78;1.15;;;;;;;19.23;48.97;100420.03;5039022;28;20033;-67
2022/11/04 07:55:17;;;;;;;3.33;1.20;;;;;;;19.24;49.13;100421.69;5044491;28;20086;-66
2022/11/04 07:57:43;;;;;;;7.95;2.00;;;;;;;19.25;50.08;100423.38;5038637;28;20032;-67
2022/11/04 08:00:09;;;;;;;6.63;2.13;;;;;;;19.20;50.35;100421.16;5024624;28;20365;-66
2022/11/04 08:02:35;;;;;;;6.45;2.38;;;;;;;19.29;51.29;100426.56;5027547;28;20037;-66
2022/11/04 08:05:00;;;;;;;5.75;2.22;;;;;;;19.31;51.66;100427.25;5044736;28;20033;-66
2022/11/04 08:07:25;;;;;;;8.82;2.25;;;;;;;19.32;51.71;100432.38;5039209;28;21229;-65
2022/11/04 08:09:51;;;;;;;6.22;2.10;;;;;;;19.30;51.85;100425.59;5024611;28;20046;-65
2022/11/04 08:12:16;;;;;;;7.40;2.20;;;;;;;19.37;51.71;100437.25;5024728;28;20144;-64
2022/11/04 08:14:41;;;;;;;5.43;1.70;;;;;;;19.32;51.60;100429.75;5033154;28;20381;-65
2022/11/04 08:17:06;;;;;;;6.73;2.17;;;;;;;19.34;51.69;100432.25;5040715;28;20263;-65
2022/11/04 08:19:32;;;;;;;5.57;1.97;;;;;;;19.39;51.62;100446.72;5030590;28;20267;-65
2022/11/04 08:21:57;;;;;;;5.70;1.90;;;;;;;19.37;51.51;100446.00;5024591;28;20267;-65
2022/11/04 08:24:22;;;;;;;6.50;2.20;;;;;;;19.28;51.57;100432.81;5039415;28;20057;-65
2022/11/04 08:26:48;;;;;;;6.53;2.00;;;;;;;19.39;51.58;100453.78;5024655;28;20572;-66
2022/11/04 08:29:13;;;;;;;5.47;1.60;;;;;;;19.36;51.58;100447.00;5024267;28;20048;-65
2022/11/04 08:31:39;;;;;;;4.63;1.33;;;;;;;19.38;51.42;100458.25;5024419;28;20040;-66
2022/11/04 08:34:07;;;;;;;16.98;2.10;;;;;;;19.40;51.39;100464.22;5024768;28;20341;-66
2022/11/04 08:36:39;;;;;;;6.20;1.77;;;;;;;19.36;51.28;100462.03;5041553;28;20024;-66
2022/11/04 08:39:06;;;;;;;5.05;2.17;;;;;;;19.37;51.24;100475.06;5042289;28;20425;-66
2022/11/04 08:41:33;;;;;;;6.95;2.10;;;;;;;19.37;51.32;100475.06;5028769;28;20035;-68
2022/11/04 08:43:59;;;;;;;5.95;1.92;;;;;;;19.38;51.29;100476.75;5040042;28;20148;-67
2022/11/04 08:46:28;;;;;;;5.90;2.10;;;;;;;19.35;51.28;100468.28;5038481;28;20037;-66
2022/11/04 08:48:53;;;;;;;7.85;1.55;;;;;;;19.33;51.42;100471.06;5024191;28;20033;-66
2022/11/04 08:51:22;;;;;;;5.22;1.55;;;;;;;19.32;51.57;100468.56;5029233;28;20066;-66
2022/11/04 08:53:47;;;;;;;11.13;2.22;;;;;;;19.32;51.23;100473.84;5035038;28;20032;-68
2022/11/04 08:56:19;;;;;;;5.60;1.85;;;;;;;19.34;51.10;100483.31;5030622;28;20453;-71
2022/11/04 08:58:44;;;;;;;7.82;2.00;;;;;;;19.31;51.35;100482.72;5032677;28;20032;-71
2022/11/04 09:01:11;;;;;;;4.03;1.60;;;;;;;19.32;51.13;100482.59;5042861;28;20412;-72
2022/11/04 09:03:38;;;;;;;5.63;1.40;;;;;;;19.37;50.95;100482.16;5040088;28;20120;-71
2022/11/04 09:06:09;;;;;;;8.57;1.92;;;;;;;19.44;50.79;100493.84;5023401;28;20099;-66
2022/11/04 09:08:36;;;;;;;9.07;1.70;;;;;;;19.46;50.68;100494.53;5042253;28;20036;-69
2022/11/04 09:11:05;;;;;;;4.13;1.35;;;;;;;19.49;50.43;100496.91;5034187;28;20273;-66
2022/11/04 09:13:31;;;;;;;6.95;1.98;;;;;;;19.48;50.67;100504.97;5022568;28;20107;-71
2022/11/04 09:15:56;;;;;;;6.47;1.63;;;;;;;19.49;50.61;100507.47;5023109;28;20462;-65
2022/11/04 09:18:21;;;;;;;5.30;1.63;;;;;;;19.49;50.50;100511.94;5035088;28;20654;-67
2022/11/04 09:20:46;;;;;;;4.73;1.63;;;;;;;19.49;50.27;100514.56;5032224;28;20266;-71
2022/11/04 09:23:12;;;;;;;7.83;1.77;;;;;;;19.49;49.22;100523.34;5022995;28;20273;-70
2022/11/04 09:25:37;;;;;;;4.78;1.75;;;;;;;19.48;50.21;100520.81;5024769;28;20698;-69
2022/11/04 09:28:03;;;;;;;7.80;1.60;;;;;;;19.53;50.36;100522.06;5034434;28;20031;-70
2022/11/04 09:30:29;;;;;;;8.43;1.50;;;;;;;19.54;49.66;100518.44;5027760;28;20366;-72
2022/11/04 09:32:54;;;;;;;5.47;1.70;;;;;;;19.58;50.18;100519.84;5024844;28;20120;-71
2022/11/04 09:35:19;;;;;;;5.63;1.77;;;;;;;19.62;50.03;100527.50;5036087;28;20461;-71
2022/11/04 09:37:45;;;;;;;6.25;1.75;;;;;;;19.65;49.92;100532.50;5035461;28;20032;-69
2022/11/04 09:40:16;;;;;;;4.57;1.80;;;;;;;19.68;49.94;100540.16;5026845;28;20045;-68
2022/11/04 09:42:51;;;;;;;4.75;1.60;;;;;;;19.73;49.92;100554.59;5022447;28;20057;-70
2022/11/04 09:45:18;;;;;;;6.78;2.38;;;;;;;19.70;49.70;100548.75;5022251;28;20069;-67
2022/11/04 09:47:47;;;;;;;4.00;1.38;;;;;;;19.70;50.07;100554.03;5031318;28;20044;-69
2022/11/04 09:50:21;;;;;;;5.85;1.45;;;;;;;19.73;50.19;100559.06;5042015;28;20037;-73
2022/11/04 09:52:54;;;;;;;5.32;1.33;;;;;;;19.69;50.01;100547.94;5039159;28;20036;-74
2022/11/04 09:55:31;;;;;;;6.50;1.58;;;;;;;19.79;50.09;100569.09;5023112;28;20017;-70
2022/11/04 09:57:57;;;;;;;6.30;1.58;;;;;;;19.81;49.93;100563.66;5037971;28;20099;-71
2022/11/04 10:00:23;;;;;;;5.68;1.15;;;;;;;19.81;50.19;100558.38;5040891;28;20033;-69
2022/11/04 10:03:08;;;;;;;6.38;1.70;;;;;;;19.82;49.85;100562.66;5025919;28;20033;-69
2022/11/04 10:05:38;;;;;;;5.00;1.50;;;;;;;19.87;50.13;100569.22;5033847;28;20469;-68
2022/11/04 10:08:35;;;;;;;3.92;1.50;;;;;;;19.90;49.90;100571.56;5026007;28;20032;-66
2022/11/04 10:11:44;;;;;;;5.43;1.55;;;;;;;19.92;49.85;100569.59;5041845;28;20025;-70
2022/11/04 10:14:34;;;;;;;5.65;1.70;;;;;;;19.96;49.74;100578.09;5041050;28;20052;-69
2022/11/04 10:17:00;;;;;;;3.70;1.40;;;;;;;19.99;49.80;100576.97;5041874;28;20044;-70
2022/11/04 10:19:46;;;;;;;5.10;1.20;;;;;;;20.00;49.58;100587.41;5041259;28;20025;-74
2022/11/04 10:22:37;;;;;;;4.00;1.35;;;;;;;19.96;49.81;100585.19;5028945;28;20045;-69
2022/11/04 10:25:14;;;;;;;4.57;1.40;;;;;;;19.92;50.03;100582.00;5021290;28;20414;-72
2022/11/04 10:27:45;;;;;;;5.55;1.30;;;;;;;19.92;50.11;100579.38;5034801;28;20036;-70
2022/11/04 10:30:18;;;;;;;5.18;1.70;;;;;;;19.98;49.96;100585.88;5033288;28;20508;-75
2022/11/04 10:32:59;;;;;;;5.88;1.58;;;;;;;20.00;49.99;100589.22;5037524;28;20074;-74
2022/11/04 10:35:41;;;;;;;4.03;1.40;;;;;;;19.97;49.77;100589.53;5026742;28;20535;-70
2022/11/04 10:38:23;;;;;;;8.45;2.08;;;;;;;20.02;50.14;100597.84;5038453;28;20462;-74
2022/11/04 10:40:51;;;;;;;4.13;1.58;;;;;;;20.01;49.84;100599.69;5037693;28;20047;-71
2022/11/04 10:43:25;;;;;;;3.97;1.50;;;;;;;20.03;49.87;100610.13;5041286;28;20346;-69
2022/11/04 10:46:04;;;;;;;6.07;1.50;;;;;;;20.05;49.92;100619.56;5021182;28;20030;-74
2022/11/04 10:48:38;;;;;;;4.80;1.52;;;;;;;20.03;49.84;100623.34;5020997;28;20492;-72
2022/11/04 10:51:04;;;;;;;5.13;1.50;;;;;;;20.02;49.99;100629.59;5040928;28;20108;-69
2022/11/04 10:53:31;;;;;;;5.40;1.70;;;;;;;20.04;49.80;100632.91;5038828;28;20052;-70
2022/11/04 10:56:03;;;;;;;4.13;1.40;;;;;;;20.09;49.97;100630.69;5041272;28;20120;-69
2022/11/04 10:58:31;;;;;;;5.00;2.00;;;;;;;20.12;49.74;100635.69;5041274;28;20098;-70
2022/11/04 11:01:24;;;;;;;4.90;1.42;;;;;;;20.13;49.64;100626.78;5036032;28;20675;-69
2022/11/04 11:03:49;;;;;;;4.45;1.60;;;;;;;20.11;49.65;100621.63;5040362;28;20087;-69
2022/11/04 11:06:27;;;;;;;5.20;1.50;;;;;;;20.19;49.58;100625.38;5029184;28;20025;-67
2022/11/04 11:08:57;;;;;;;4.70;1.70;;;;;;;20.19;49.52;100620.91;5020583;28;20263;-67
2022/11/04 11:11:44;;;;;;;5.75;1.60;;;;;;;20.21;49.87;100618.97;5020973;28;20029;-68
2022/11/04 11:14:27;;;;;;;3.72;1.42;;;;;;;20.21;49.72;100621.59;5020888;28;20492;-68
2022/11/04 11:17:16;;;;;;;4.15;1.48;;;;;;;20.13;49.64;100616.19;5023120;28;20040;-67
2022/11/04 11:19:52;;;;;;;6.43;1.80;;;;;;;20.09;49.67;100622.75;5028421;28;20082;-70
2022/11/04 11:22:33;;;;;;;5.03;1.80;;;;;;;20.08;49.93;100629.03;5025521;28;20828;-74
2022/11/04 11:25:19;;;;;;;5.72;1.70;;;;;;;20.10;49.72;100635.81;5021040;28;20136;-66
2022/11/04 11:27:51;;;;;;;3.15;1.48;;;;;;;20.10;49.82;100630.53;5038554;28;20068;-68
2022/11/04 11:30:28;;;;;;;5.78;1.60;;;;;;;20.12;49.59;100638.31;5040349;28;20017;-70
2022/11/04 11:32:59;;;;;;;6.00;1.70;;;;;;;20.02;49.91;100627.78;5040436;28;20127;-70
2022/11/04 11:35:29;;;;;;;5.97;1.85;;;;;;;19.98;49.94;100626.41;5040278;28;20082;-69
2022/11/04 11:37:56;;;;;;;4.40;1.73;;;;;;;19.97;50.08;100626.56;5037386;28;20029;-70
2022/11/04 11:40:24;;;;;;;7.45;2.17;;;;;;;19.93;50.02;100637.41;5040278;28;20043;-69
2022/11/04 11:42:49;;;;;;;5.65;2.08;;;;;;;19.87;50.08;100630.03;5040260;28;20037;-68
2022/11/04 11:45:15;;;;;;;7.60;2.00;;;;;;;19.84;49.99;100629.50;5040456;28;20025;-71
2022/11/04 11:47:42;;;;;;;5.32;1.80;;;;;;;19.84;50.29;100630.31;5039384;28;20037;-68
2022/11/04 11:50:27;;;;;;;7.43;2.00;;;;;;;19.82;50.23;100627.00;5039543;28;20029;-69
2022/11/04 11:53:05;;;;;;;6.32;2.20;;;;;;;19.74;50.45;100617.06;5039574;28;20044;-68
2022/11/04 11:55:44;;;;;;;7.18;2.47;;;;;;;19.75;50.85;100629.31;5029200;28;20806;-71
2022/11/04 11:58:40;;;;;;;7.20;2.22;;;;;;;19.80;50.57;100639.50;5029388;28;20028;-74
2022/11/04 12:01:27;;;;;;;8.07;2.47;;;;;;;19.86;50.54;100640.75;5021532;28;20079;-68
2022/11/04 12:03:52;;;;;;;7.90;2.45;;;;;;;19.86;50.46;100646.88;5029557;28;20041;-73
2022/11/04 12:06:24;;;;;;;6.07;2.35;;;;;;;19.91;50.26;100647.28;5025797;28;20036;-71